Time,TemperatureF,DewpointF,PressureIn,WindDirection,WindDirectionDegrees,WindSpeedMPH,WindSpeedGustMPH,Humidity,HourlyPrecipIn,Conditions,Clouds,dailyrainin,SoftwareType,DateUTC
2013-01-18 00:03:00,-16.5,-26.5,29.80,WSW,241,0.0,0.0,59,0.00,,,0.00,Weather View 32 v70,2013-01-18 09:03:00,
2013-01-18 00:08:00,-16.7,-26.7,29.80,WSW,241,0.0,0.0,59,0.00,,,0.00,Weather View 32 v70,2013-01-18 09:08:00,
2013-01-18 00:13:00,-16.9,-27.2,29.80,WSW,241,0.0,0.0,58,0.00,,,0.00,Weather View 32 v70,2013-01-18 09:13:00,
2013-01-18 00:18:00,-17.1,-27.4,29.81,WSW,241,0.0,0.0,58,0.00,,,0.00,Weather View 32 v70,2013-01-18 09:18:00,
2013-01-18 00:23:00,-17.5,-27.8,29.81,WSW,241,0.0,0.0,58,0.00,,,0.00,Weather View 32 v70,2013-01-18 09:23:00,
2013-01-18 00:28:00,-17.9,-28.5,29.81,WSW,241,0.0,0.0,57,0.00,,,0.00,Weather View 32 v70,2013-01-18 09:28:00,
2013-01-18 00:33:00,-18.2,-28.8,29.81,WSW,241,0.0,0.0,57,0.00,,,0.00,Weather View 32 v70,2013-01-18 09:33:00,
2013-01-18 00:38:00,-18.6,-29.2,29.82,WSW,241,0.0,0.0,57,0.00,,,0.00,Weather View 32 v70,2013-01-18 09:38:00,
2013-01-18 00:43:00,-18.9,-29.4,29.82,WSW,241,0.0,0.0,57,0.00,,,0.00,Weather View 32 v70,2013-01-18 09:43:00,
2013-01-18 00:48:00,-19.3,-30.1,29.82,WSW,241,0.0,0.0,56,0.00,,,0.00,Weather View 32 v70,2013-01-18 09:48:00,
2013-01-18 00:53:00,-19.6,-30.4,29.82,WSW,241,0.0,0.0,56,0.00,,,0.00,Weather View 32 v70,2013-01-18 09:53:00,
2013-01-18 00:58:00,-20.0,-30.8,29.82,WSW,241,0.0,0.0,56,0.00,,,0.00,Weather View 32 v70,2013-01-18 09:58:00,
2013-01-18 01:03:00,-20.1,-30.9,29.82,WSW,241,0.0,0.0,56,0.00,,,0.00,Weather View 32 v70,2013-01-18 10:03:00,
2013-01-18 01:08:00,-20.4,-31.2,29.82,WSW,241,0.0,0.0,56,0.00,,,0.00,Weather View 32 v70,2013-01-18 10:08:00,
2013-01-18 01:13:00,-20.6,-31.4,29.83,WSW,241,0.0,0.0,56,0.00,,,0.00,Weather View 32 v70,2013-01-18 10:13:00,
2013-01-18 01:18:00,-20.8,-31.6,29.83,WSW,241,0.0,0.0,56,0.00,,,0.00,Weather View 32 v70,2013-01-18 10:18:00,
2013-01-18 01:23:00,-21.0,-32.1,29.83,WSW,241,0.0,0.0,55,0.00,,,0.00,Weather View 32 v70,2013-01-18 10:23:00,
2013-01-18 01:28:00,-21.4,-32.4,29.83,WSW,241,0.0,0.0,55,0.00,,,0.00,Weather View 32 v70,2013-01-18 10:28:00,
2013-01-18 01:33:00,-21.7,-32.7,29.83,WSW,241,0.0,0.0,55,0.00,,,0.00,Weather View 32 v70,2013-01-18 10:33:00,
2013-01-18 01:38:00,-21.9,-32.9,29.83,WSW,241,0.0,0.0,55,0.00,,,0.00,Weather View 32 v70,2013-01-18 10:38:00,
2013-01-18 01:43:00,-22.1,-33.1,29.83,WSW,241,0.0,0.0,55,0.00,,,0.00,Weather View 32 v70,2013-01-18 10:43:00,
2013-01-18 01:48:00,-22.4,-33.4,29.83,WSW,241,0.0,0.0,55,0.00,,,0.00,Weather View 32 v70,2013-01-18 10:48:00,
2013-01-18 01:53:00,-22.5,-33.8,29.83,WSW,241,0.0,0.0,54,0.00,,,0.00,Weather View 32 v70,2013-01-18 10:53:00,
2013-01-18 01:58:00,-22.9,-34.2,29.83,WSW,241,0.0,0.0,54,0.00,,,0.00,Weather View 32 v70,2013-01-18 10:58:00,
2013-01-18 02:03:00,-23.2,-34.5,29.83,WSW,241,0.0,0.0,54,0.00,,,0.00,Weather View 32 v70,2013-01-18 11:03:00,
2013-01-18 02:08:00,-23.3,-34.6,29.84,WSW,241,0.0,0.0,54,0.00,,,0.00,Weather View 32 v70,2013-01-18 11:08:00,
2013-01-18 02:13:00,-23.4,-34.7,29.84,WSW,241,0.0,0.0,54,0.00,,,0.00,Weather View 32 v70,2013-01-18 11:13:00,
2013-01-18 02:18:00,-23.5,-34.8,29.84,WSW,241,0.0,0.0,54,0.00,,,0.00,Weather View 32 v70,2013-01-18 11:18:00,
2013-01-18 02:23:00,-23.8,-35.0,29.84,WSW,241,0.0,0.0,54,0.00,,,0.00,Weather View 32 v70,2013-01-18 11:23:00,
2013-01-18 02:28:00,-23.6,-34.8,29.84,WSW,241,0.0,0.0,54,0.00,,,0.00,Weather View 32 v70,2013-01-18 11:28:00,
2013-01-18 02:33:00,-23.6,-34.8,29.84,WSW,241,0.0,0.0,54,0.00,,,0.00,Weather View 32 v70,2013-01-18 11:33:00,
2013-01-18 02:38:00,-23.6,-34.5,29.84,WSW,241,0.0,0.0,55,0.00,,,0.00,Weather View 32 v70,2013-01-18 11:38:00,
2013-01-18 02:43:00,-23.7,-34.9,29.85,WSW,241,0.0,0.0,54,0.00,,,0.00,Weather View 32 v70,2013-01-18 11:43:00,
2013-01-18 02:48:00,-24.0,-35.2,29.85,WSW,241,0.0,0.0,54,0.00,,,0.00,Weather View 32 v70,2013-01-18 11:48:00,
2013-01-18 02:53:00,-24.2,-35.4,29.85,WSW,241,0.0,0.0,54,0.00,,,0.00,Weather View 32 v70,2013-01-18 11:53:00,
2013-01-18 02:58:00,-24.4,-35.9,29.85,WSW,241,0.0,0.0,53,0.00,,,0.00,Weather View 32 v70,2013-01-18 11:58:00,
2013-01-18 03:03:00,-24.7,-36.2,29.85,WSW,241,0.0,0.0,53,0.00,,,0.00,Weather View 32 v70,2013-01-18 12:03:00,
2013-01-18 03:08:00,-24.9,-36.4,29.85,WSW,241,0.0,0.0,53,0.00,,,0.00,Weather View 32 v70,2013-01-18 12:08:00,
2013-01-18 03:13:00,-25.2,-36.7,29.86,WSW,241,0.0,0.0,53,0.00,,,0.00,Weather View 32 v70,2013-01-18 12:13:00,
2013-01-18 03:18:00,-25.4,-36.9,29.86,WSW,241,0.0,0.0,53,0.00,,,0.00,Weather View 32 v70,2013-01-18 12:18:00,
2013-01-18 03:23:00,-25.6,-37.1,29.86,WSW,241,0.0,0.0,53,0.00,,,0.00,Weather View 32 v70,2013-01-18 12:23:00,
2013-01-18 03:28:00,-25.6,-37.1,29.86,WSW,241,0.0,0.0,53,0.00,,,0.00,Weather View 32 v70,2013-01-18 12:28:00,
2013-01-18 03:33:00,-25.4,-36.9,29.87,WSW,241,0.0,0.0,53,0.00,,,0.00,Weather View 32 v70,2013-01-18 12:33:00,
2013-01-18 03:38:00,-25.5,-37.0,29.87,WSW,241,0.0,0.0,53,0.00,,,0.00,Weather View 32 v70,2013-01-18 12:38:00,
2013-01-18 03:43:00,-25.7,-37.1,29.87,WSW,241,0.0,0.0,53,0.00,,,0.00,Weather View 32 v70,2013-01-18 12:43:00,
2013-01-18 03:48:00,-25.9,-37.3,29.87,WSW,241,0.0,0.0,53,0.00,,,0.00,Weather View 32 v70,2013-01-18 12:48:00,
2013-01-18 03:53:00,-26.1,-37.9,29.87,WSW,241,0.0,0.0,52,0.00,,,0.00,Weather View 32 v70,2013-01-18 12:53:00,
2013-01-18 03:58:00,-26.3,-38.0,29.87,WSW,241,0.0,0.0,52,0.00,,,0.00,Weather View 32 v70,2013-01-18 12:58:00,
2013-01-18 04:03:00,-26.4,-38.1,29.87,WSW,241,0.0,1.0,52,0.00,,,0.00,Weather View 32 v70,2013-01-18 13:03:00,
2013-01-18 04:08:00,-26.6,-38.3,29.88,WSW,241,0.0,1.0,52,0.00,,,0.00,Weather View 32 v70,2013-01-18 13:08:00,
2013-01-18 04:13:00,-26.8,-38.5,29.88,WSW,241,0.0,1.0,52,0.00,,,0.00,Weather View 32 v70,2013-01-18 13:13:00,
2013-01-18 04:18:00,-26.9,-38.6,29.88,WSW,241,0.0,1.0,52,0.00,,,0.00,Weather View 32 v70,2013-01-18 13:18:00,
2013-01-18 04:23:00,-27.1,-38.8,29.88,WSW,241,0.0,1.0,52,0.00,,,0.00,Weather View 32 v70,2013-01-18 13:23:00,
2013-01-18 04:27:00,-27.1,-38.8,29.88,WSW,241,0.0,1.0,52,0.00,,,0.00,Weather View 32 v70,2013-01-18 13:27:00,
2013-01-18 04:32:00,-26.9,-38.6,29.88,WSW,241,0.0,1.0,52,0.00,,,0.00,Weather View 32 v70,2013-01-18 13:32:00,
2013-01-18 04:37:00,-27.1,-38.8,29.88,WSW,241,0.0,1.0,52,0.00,,,0.00,Weather View 32 v70,2013-01-18 13:37:00,
2013-01-18 04:42:00,-27.2,-38.9,29.88,WSW,241,0.0,1.0,52,0.00,,,0.00,Weather View 32 v70,2013-01-18 13:42:00,
2013-01-18 04:47:00,-27.4,-39.1,29.88,WSW,241,0.0,1.0,52,0.00,,,0.00,Weather View 32 v70,2013-01-18 13:47:00,
2013-01-18 04:52:00,-27.5,-39.5,29.88,WSW,241,0.0,1.0,51,0.00,,,0.00,Weather View 32 v70,2013-01-18 13:52:00,
2013-01-18 04:57:00,-27.6,-39.6,29.88,WSW,241,0.0,1.0,51,0.00,,,0.00,Weather View 32 v70,2013-01-18 13:57:00,
2013-01-18 05:02:00,-27.7,-39.7,29.89,WSW,241,0.0,0.0,51,0.00,,,0.00,Weather View 32 v70,2013-01-18 14:02:00,
2013-01-18 05:07:00,-27.8,-39.8,29.89,WSW,241,0.0,0.0,51,0.00,,,0.00,Weather View 32 v70,2013-01-18 14:07:00,
2013-01-18 05:12:00,-27.9,-39.9,29.89,WSW,241,0.0,0.0,51,0.00,,,0.00,Weather View 32 v70,2013-01-18 14:12:00,
2013-01-18 05:17:00,-28.1,-40.1,29.89,WSW,241,0.0,0.0,51,0.00,,,0.00,Weather View 32 v70,2013-01-18 14:17:00,
2013-01-18 05:22:00,-28.0,-40.0,29.89,WSW,241,0.0,0.0,51,0.00,,,0.00,Weather View 32 v70,2013-01-18 14:22:00,
2013-01-18 05:28:00,-28.1,-40.1,29.89,WSW,241,0.0,0.0,51,0.00,,,0.00,Weather View 32 v70,2013-01-18 14:28:00,
2013-01-18 05:33:00,-28.1,-40.1,29.89,WSW,241,0.0,0.0,51,0.00,,,0.00,Weather View 32 v70,2013-01-18 14:33:00,
2013-01-18 05:38:00,-28.4,-40.3,29.90,WSW,241,0.0,0.0,51,0.00,,,0.00,Weather View 32 v70,2013-01-18 14:38:00,
2013-01-18 05:43:00,-28.6,-40.5,29.90,WSW,241,0.0,0.0,51,0.00,,,0.00,Weather View 32 v70,2013-01-18 14:43:00,
2013-01-18 05:48:00,-28.7,-40.6,29.90,WSW,241,0.0,0.0,51,0.00,,,0.00,Weather View 32 v70,2013-01-18 14:48:00,
2013-01-18 05:52:00,-28.6,-40.5,29.90,WSW,241,0.0,0.0,51,0.00,,,0.00,Weather View 32 v70,2013-01-18 14:52:00,
2013-01-18 05:57:00,-28.8,-41.1,29.90,WSW,241,0.0,0.0,50,0.00,,,0.00,Weather View 32 v70,2013-01-18 14:57:00,
2013-01-18 06:02:00,-29.0,-41.2,29.90,WSW,241,0.0,0.0,50,0.00,,,0.00,Weather View 32 v70,2013-01-18 15:02:00,
2013-01-18 06:08:00,-29.3,-41.5,29.91,WSW,241,0.0,0.0,50,0.00,,,0.00,Weather View 32 v70,2013-01-18 15:08:00,
2013-01-18 06:12:00,-29.4,-41.6,29.90,WSW,241,0.0,0.0,50,0.00,,,0.00,Weather View 32 v70,2013-01-18 15:12:00,
2013-01-18 06:18:00,-29.4,-41.6,29.90,WSW,241,0.0,0.0,50,0.00,,,0.00,Weather View 32 v70,2013-01-18 15:18:00,
2013-01-18 06:22:00,-29.4,-41.6,29.90,WSW,241,0.0,0.0,50,0.00,,,0.00,Weather View 32 v70,2013-01-18 15:22:00,
2013-01-18 06:28:00,-29.3,-41.2,29.90,WSW,241,0.0,0.0,51,0.00,,,0.00,Weather View 32 v70,2013-01-18 15:28:00,
2013-01-18 06:33:00,-29.4,-41.3,29.91,WSW,241,0.0,0.0,51,0.00,,,0.00,Weather View 32 v70,2013-01-18 15:33:00,
2013-01-18 06:38:00,-29.5,-41.7,29.91,WSW,241,0.0,0.0,50,0.00,,,0.00,Weather View 32 v70,2013-01-18 15:38:00,
2013-01-18 06:42:00,-29.6,-41.8,29.91,WSW,241,0.0,0.0,50,0.00,,,0.00,Weather View 32 v70,2013-01-18 15:42:00,
2013-01-18 06:47:00,-29.7,-41.9,29.91,WSW,241,0.0,0.0,50,0.00,,,0.00,Weather View 32 v70,2013-01-18 15:47:00,
2013-01-18 06:52:00,-29.8,-42.0,29.92,WSW,241,0.0,0.0,50,0.00,,,0.00,Weather View 32 v70,2013-01-18 15:52:00,
2013-01-18 06:57:00,-29.9,-42.1,29.92,WSW,241,0.0,0.0,50,0.00,,,0.00,Weather View 32 v70,2013-01-18 15:57:00,
2013-01-18 07:02:00,-30.0,-42.2,29.92,WSW,241,0.0,0.0,49,0.00,,,0.00,Weather View 32 v70,2013-01-18 16:02:00,
2013-01-18 07:07:00,-30.1,-42.3,29.92,WSW,241,0.0,0.0,50,0.00,,,0.00,Weather View 32 v70,2013-01-18 16:07:00,
2013-01-18 07:12:00,-30.2,-42.4,29.92,WSW,241,0.0,0.0,50,0.00,,,0.00,Weather View 32 v70,2013-01-18 16:12:00,
2013-01-18 07:17:00,-30.3,-42.8,29.92,WSW,241,0.0,0.0,49,0.00,,,0.00,Weather View 32 v70,2013-01-18 16:17:00,
2013-01-18 07:22:00,-30.5,-43.0,29.92,WSW,241,0.0,0.0,49,0.00,,,0.00,Weather View 32 v70,2013-01-18 16:22:00,
2013-01-18 07:27:00,-30.6,-43.1,29.93,WSW,241,0.0,0.0,49,0.00,,,0.00,Weather View 32 v70,2013-01-18 16:27:00,
2013-01-18 07:32:00,-30.7,-43.2,29.93,WSW,241,0.0,0.0,49,0.00,,,0.00,Weather View 32 v70,2013-01-18 16:32:00,
2013-01-18 07:37:00,-30.6,-43.1,29.93,WSW,241,0.0,0.0,49,0.00,,,0.00,Weather View 32 v70,2013-01-18 16:37:00,
2013-01-18 07:42:00,-30.6,-43.1,29.93,WSW,241,0.0,0.0,49,0.00,,,0.00,Weather View 32 v70,2013-01-18 16:42:00,
2013-01-18 07:48:00,-30.6,-43.1,29.93,WSW,241,0.0,0.0,49,0.00,,,0.00,Weather View 32 v70,2013-01-18 16:48:00,
2013-01-18 07:53:00,-30.7,-43.2,29.93,WSW,241,0.0,0.0,49,0.00,,,0.00,Weather View 32 v70,2013-01-18 16:53:00,
2013-01-18 07:58:00,-30.9,-43.4,29.93,WSW,241,0.0,0.0,49,0.00,,,0.00,Weather View 32 v70,2013-01-18 16:58:00,
2013-01-18 08:03:00,-31.1,-43.5,29.94,WSW,241,0.0,0.0,49,0.00,,,0.00,Weather View 32 v70,2013-01-18 17:03:00,
2013-01-18 08:08:00,-31.1,-43.5,29.93,WSW,241,0.0,0.0,49,0.00,,,0.00,Weather View 32 v70,2013-01-18 17:08:00,
2013-01-18 08:13:00,-31.2,-43.6,29.94,WSW,241,0.0,0.0,49,0.00,,,0.00,Weather View 32 v70,2013-01-18 17:13:00,
2013-01-18 08:18:00,-31.3,-44.1,29.94,WSW,241,0.0,0.0,48,0.00,,,0.00,Weather View 32 v70,2013-01-18 17:18:00,
2013-01-18 08:23:00,-31.3,-43.7,29.94,WSW,241,0.0,0.0,49,0.00,,,0.00,Weather View 32 v70,2013-01-18 17:23:00,
2013-01-18 08:28:00,-31.4,-43.8,29.94,WSW,241,0.0,0.0,49,0.00,,,0.00,Weather View 32 v70,2013-01-18 17:28:00,
2013-01-18 08:33:00,-31.3,-43.7,29.94,WSW,241,0.0,0.0,49,0.00,,,0.00,Weather View 32 v70,2013-01-18 17:33:00,
2013-01-18 08:38:00,-31.5,-44.3,29.94,WSW,241,0.0,0.0,48,0.00,,,0.00,Weather View 32 v70,2013-01-18 17:38:00,
2013-01-18 08:43:00,-31.6,-44.0,29.95,WSW,241,0.0,0.0,49,0.00,,,0.00,Weather View 32 v70,2013-01-18 17:43:00,
2013-01-18 08:48:00,-31.7,-44.5,29.95,WSW,241,0.0,0.0,48,0.00,,,0.00,Weather View 32 v70,2013-01-18 17:48:00,
2013-01-18 08:53:00,-31.7,-44.5,29.95,WSW,241,0.0,0.0,48,0.00,,,0.00,Weather View 32 v70,2013-01-18 17:53:00,
2013-01-18 08:58:00,-31.8,-44.5,29.95,WSW,241,0.0,0.0,48,0.00,,,0.00,Weather View 32 v70,2013-01-18 17:58:00,
2013-01-18 09:03:00,-32.0,-44.7,29.95,WSW,241,0.0,0.0,48,0.00,,,0.00,Weather View 32 v70,2013-01-18 18:03:00,
2013-01-18 09:08:00,-32.1,-44.8,29.95,WSW,241,0.0,0.0,48,0.00,,,0.00,Weather View 32 v70,2013-01-18 18:08:00,
2013-01-18 09:13:00,-32.2,-44.9,29.95,WSW,241,0.0,0.0,48,0.00,,,0.00,Weather View 32 v70,2013-01-18 18:13:00,
2013-01-18 09:18:00,-32.4,-45.1,29.95,WSW,241,0.0,0.0,48,0.00,,,0.00,Weather View 32 v70,2013-01-18 18:18:00,
2013-01-18 09:23:00,-32.5,-45.2,29.96,WSW,241,0.0,0.0,48,0.00,,,0.00,Weather View 32 v70,2013-01-18 18:23:00,
2013-01-18 09:28:00,-32.5,-45.2,29.96,WSW,241,0.0,0.0,48,0.00,,,0.00,Weather View 32 v70,2013-01-18 18:28:00,
2013-01-18 09:33:00,-32.6,-45.3,29.96,WSW,241,0.0,0.0,48,0.00,,,0.00,Weather View 32 v70,2013-01-18 18:33:00,
2013-01-18 09:38:00,-32.7,-45.4,29.96,WSW,241,0.0,0.0,48,0.00,,,0.00,Weather View 32 v70,2013-01-18 18:38:00,
2013-01-18 09:43:00,-32.8,-45.5,29.96,WSW,241,0.0,0.0,48,0.00,,,0.00,Weather View 32 v70,2013-01-18 18:43:00,
2013-01-18 09:48:00,-32.8,-45.5,29.97,WSW,241,0.0,0.0,48,0.00,,,0.00,Weather View 32 v70,2013-01-18 18:48:00,
2013-01-18 09:53:00,-32.8,-45.5,29.96,WSW,241,0.0,0.0,48,0.00,,,0.00,Weather View 32 v70,2013-01-18 18:53:00,
2013-01-18 09:58:00,-32.8,-45.5,29.97,WSW,241,0.0,0.0,48,0.00,,,0.00,Weather View 32 v70,2013-01-18 18:58:00,
2013-01-18 10:03:00,-32.6,-45.3,29.97,WSW,241,0.0,0.0,48,0.00,,,0.00,Weather View 32 v70,2013-01-18 19:03:00,
2013-01-18 10:08:00,-32.6,-45.3,29.98,WSW,241,0.0,0.0,48,0.00,,,0.00,Weather View 32 v70,2013-01-18 19:08:00,
2013-01-18 10:13:00,-32.6,-45.3,29.98,WSW,241,0.0,0.0,48,0.00,,,0.00,Weather View 32 v70,2013-01-18 19:13:00,
2013-01-18 10:18:00,-32.6,-45.3,29.98,WSW,241,0.0,0.0,48,0.00,,,0.00,Weather View 32 v70,2013-01-18 19:18:00,
2013-01-18 10:23:00,-32.8,-45.5,29.98,WSW,241,0.0,0.0,48,0.00,,,0.00,Weather View 32 v70,2013-01-18 19:23:00,
2013-01-18 10:28:00,-32.8,-45.5,29.98,WSW,241,0.0,0.0,48,0.00,,,0.00,Weather View 32 v70,2013-01-18 19:28:00,
2013-01-18 10:33:00,-32.9,-45.6,29.98,WSW,241,0.0,0.0,48,0.00,,,0.00,Weather View 32 v70,2013-01-18 19:33:00,
2013-01-18 10:38:00,-32.9,-45.6,29.98,WSW,241,0.0,0.0,48,0.00,,,0.00,Weather View 32 v70,2013-01-18 19:38:00,
2013-01-18 10:43:00,-32.6,-45.3,29.98,WSW,241,0.0,0.0,48,0.00,,,0.00,Weather View 32 v70,2013-01-18 19:43:00,
2013-01-18 10:48:00,-32.8,-45.5,29.98,WSW,241,0.0,0.0,48,0.00,,,0.00,Weather View 32 v70,2013-01-18 19:48:00,
2013-01-18 10:53:00,-32.8,-45.5,29.99,WSW,241,0.0,0.0,48,0.00,,,0.00,Weather View 32 v70,2013-01-18 19:53:00,
2013-01-18 10:58:00,-32.4,-45.1,29.99,WSW,241,0.0,0.0,48,0.00,,,0.00,Weather View 32 v70,2013-01-18 19:58:00,
2013-01-18 11:03:00,-32.1,-44.8,29.99,WSW,241,0.0,0.0,48,0.00,,,0.00,Weather View 32 v70,2013-01-18 20:03:00,
2013-01-18 11:08:00,-31.9,-44.6,29.99,WSW,241,0.0,0.0,48,0.00,,,0.00,Weather View 32 v70,2013-01-18 20:08:00,
2013-01-18 11:13:00,-31.9,-44.6,29.99,WSW,241,0.0,0.0,48,0.00,,,0.00,Weather View 32 v70,2013-01-18 20:13:00,
2013-01-18 11:18:00,-32.0,-44.7,29.99,WSW,241,0.0,0.0,48,0.00,,,0.00,Weather View 32 v70,2013-01-18 20:18:00,
2013-01-18 11:23:00,-32.1,-44.8,29.99,WSW,241,0.0,0.0,48,0.00,,,0.00,Weather View 32 v70,2013-01-18 20:23:00,
2013-01-18 11:28:00,-32.0,-44.7,29.99,WSW,241,0.0,0.0,48,0.00,,,0.00,Weather View 32 v70,2013-01-18 20:28:00,
2013-01-18 11:33:00,-31.8,-44.2,30.00,WSW,241,0.0,0.0,49,0.00,,,0.00,Weather View 32 v70,2013-01-18 20:33:00,
2013-01-18 11:38:00,-31.7,-44.1,30.00,WSW,241,0.0,0.0,49,0.00,,,0.00,Weather View 32 v70,2013-01-18 20:38:00,
2013-01-18 11:43:00,-31.5,-43.9,30.00,WSW,241,0.0,0.0,49,0.00,,,0.00,Weather View 32 v70,2013-01-18 20:43:00,
2013-01-18 11:48:00,-31.2,-43.6,30.00,WSW,241,0.0,0.0,49,0.00,,,0.00,Weather View 32 v70,2013-01-18 20:48:00,
2013-01-18 11:53:00,-30.9,-43.4,30.00,WSW,241,0.0,0.0,49,0.00,,,0.00,Weather View 32 v70,2013-01-18 20:53:00,
2013-01-18 11:58:00,-30.6,-42.7,30.01,WSW,241,0.0,0.0,50,0.00,,,0.00,Weather View 32 v70,2013-01-18 20:58:00,
2013-01-18 12:03:00,-30.1,-42.3,30.00,WSW,241,0.0,0.0,50,0.00,,,0.00,Weather View 32 v70,2013-01-18 21:03:00,
2013-01-18 12:07:00,-29.8,-42.0,30.01,WSW,241,0.0,0.0,50,0.00,,,0.00,Weather View 32 v70,2013-01-18 21:07:00,
2013-01-18 12:12:00,-29.4,-41.3,30.01,WSW,241,0.0,0.0,51,0.00,,,0.00,Weather View 32 v70,2013-01-18 21:12:00,
2013-01-18 12:18:00,-29.0,-40.9,30.00,WSW,241,0.0,0.0,51,0.00,,,0.00,Weather View 32 v70,2013-01-18 21:18:00,
2013-01-18 12:22:00,-28.6,-40.5,30.00,WSW,241,0.0,0.0,51,0.00,,,0.00,Weather View 32 v70,2013-01-18 21:22:00,
2013-01-18 12:27:00,-28.2,-39.8,30.00,WSW,241,0.0,0.0,52,0.00,,,0.00,Weather View 32 v70,2013-01-18 21:27:00,
2013-01-18 12:32:00,-27.8,-39.5,30.01,WSW,241,0.0,0.0,52,0.00,,,0.00,Weather View 32 v70,2013-01-18 21:32:00,
2013-01-18 12:37:00,-27.1,-38.5,30.00,WSW,241,0.0,0.0,53,0.00,,,0.00,Weather View 32 v70,2013-01-18 21:37:00,
2013-01-18 12:42:00,-26.7,-38.1,30.00,WSW,241,0.0,0.0,53,0.00,,,0.00,Weather View 32 v70,2013-01-18 21:42:00,
2013-01-18 12:47:00,-26.3,-37.7,30.00,WSW,241,0.0,0.0,53,0.00,,,0.00,Weather View 32 v70,2013-01-18 21:47:00,
2013-01-18 12:52:00,-26.1,-37.5,30.01,WSW,241,0.0,0.0,53,0.00,,,0.00,Weather View 32 v70,2013-01-18 21:52:00,
2013-01-18 12:57:00,-26.0,-37.4,30.00,WSW,241,0.0,0.0,53,0.00,,,0.00,Weather View 32 v70,2013-01-18 21:57:00,
2013-01-18 13:02:00,-25.7,-37.1,30.01,WSW,241,0.0,0.0,53,0.00,,,0.00,Weather View 32 v70,2013-01-18 22:02:00,
2013-01-18 13:07:00,-25.4,-36.9,30.01,WSW,241,0.0,0.0,53,0.00,,,0.00,Weather View 32 v70,2013-01-18 22:07:00,
2013-01-18 13:12:00,-24.9,-36.1,30.01,WSW,241,0.0,0.0,54,0.00,,,0.00,Weather View 32 v70,2013-01-18 22:12:00,
2013-01-18 13:17:00,-24.6,-35.8,30.01,WSW,241,0.0,0.0,54,0.00,,,0.00,Weather View 32 v70,2013-01-18 22:17:00,
2013-01-18 13:22:00,-24.2,-35.4,30.01,WSW,241,0.0,0.0,54,0.00,,,0.00,Weather View 32 v70,2013-01-18 22:22:00,
2013-01-18 13:27:00,-24.0,-35.2,30.01,WSW,241,0.0,0.0,54,0.00,,,0.00,Weather View 32 v70,2013-01-18 22:27:00,
2013-01-18 13:32:00,-23.9,-35.1,30.01,WSW,241,0.0,0.0,54,0.00,,,0.00,Weather View 32 v70,2013-01-18 22:32:00,
2013-01-18 13:37:00,-23.8,-35.0,30.01,WSW,241,0.0,0.0,54,0.00,,,0.00,Weather View 32 v70,2013-01-18 22:37:00,
2013-01-18 13:42:00,-23.6,-34.8,30.01,WSW,241,0.0,0.0,54,0.00,,,0.00,Weather View 32 v70,2013-01-18 22:42:00,
2013-01-18 13:47:00,-23.4,-34.7,30.01,WSW,241,0.0,0.0,54,0.00,,,0.00,Weather View 32 v70,2013-01-18 22:47:00,
2013-01-18 13:52:00,-23.2,-34.1,30.01,WSW,241,0.0,0.0,55,0.00,,,0.00,Weather View 32 v70,2013-01-18 22:52:00,
2013-01-18 13:57:00,-22.9,-33.9,30.01,WSW,241,0.0,0.0,55,0.00,,,0.00,Weather View 32 v70,2013-01-18 22:57:00,
2013-01-18 14:02:00,-22.8,-33.8,30.01,WSW,241,0.0,0.0,55,0.00,,,0.00,Weather View 32 v70,2013-01-18 23:02:00,
2013-01-18 14:07:00,-22.7,-33.7,30.01,WSW,241,0.0,0.0,55,0.00,,,0.00,Weather View 32 v70,2013-01-18 23:07:00,
2013-01-18 14:12:00,-22.5,-33.5,30.01,WSW,241,0.0,0.0,55,0.00,,,0.00,Weather View 32 v70,2013-01-18 23:12:00,
2013-01-18 14:17:00,-22.4,-33.4,30.01,WSW,241,0.0,0.0,55,0.00,,,0.00,Weather View 32 v70,2013-01-18 23:17:00,
2013-01-18 14:22:00,-22.4,-33.4,30.01,WSW,241,0.0,0.0,55,0.00,,,0.00,Weather View 32 v70,2013-01-18 23:22:00,
2013-01-18 14:27:00,-22.3,-33.3,30.01,WSW,241,0.0,0.0,55,0.00,,,0.00,Weather View 32 v70,2013-01-18 23:27:00,
2013-01-18 14:32:00,-22.2,-33.2,30.01,WSW,241,0.0,0.0,55,0.00,,,0.00,Weather View 32 v70,2013-01-18 23:32:00,
2013-01-18 14:37:00,-22.3,-33.3,30.01,WSW,241,0.0,0.0,55,0.00,,,0.00,Weather View 32 v70,2013-01-18 23:37:00,
2013-01-18 14:42:00,-22.1,-33.1,30.01,WSW,241,0.0,0.0,55,0.00,,,0.00,Weather View 32 v70,2013-01-18 23:42:00,
2013-01-18 14:47:00,-21.9,-32.9,30.01,WSW,241,0.0,0.0,55,0.00,,,0.00,Weather View 32 v70,2013-01-18 23:47:00,
2013-01-18 14:52:00,-22.0,-33.0,30.01,WSW,241,0.0,0.0,55,0.00,,,0.00,Weather View 32 v70,2013-01-18 23:52:00,
2013-01-18 14:57:00,-22.0,-33.0,30.01,WSW,241,0.0,0.0,55,0.00,,,0.00,Weather View 32 v70,2013-01-18 23:57:00,
2013-01-18 15:02:00,-21.8,-32.8,30.01,WSW,241,0.0,0.0,55,0.00,,,0.00,Weather View 32 v70,2013-01-19 00:02:00,
2013-01-18 15:07:00,-21.8,-32.8,30.01,WSW,241,0.0,0.0,55,0.00,,,0.00,Weather View 32 v70,2013-01-19 00:07:00,
2013-01-18 15:12:00,-21.9,-32.9,30.01,WSW,241,0.0,0.0,55,0.00,,,0.00,Weather View 32 v70,2013-01-19 00:12:00,
2013-01-18 15:17:00,-22.1,-33.4,30.01,WSW,241,0.0,0.0,54,0.00,,,0.00,Weather View 32 v70,2013-01-19 00:17:00,
2013-01-18 15:22:00,-22.3,-33.6,30.01,WSW,241,0.0,0.0,54,0.00,,,0.00,Weather View 32 v70,2013-01-19 00:22:00,
2013-01-18 15:27:00,-22.5,-33.8,30.01,WSW,241,0.0,0.0,54,0.00,,,0.00,Weather View 32 v70,2013-01-19 00:27:00,
2013-01-18 15:32:00,-22.7,-34.0,30.01,WSW,241,0.0,0.0,54,0.00,,,0.00,Weather View 32 v70,2013-01-19 00:32:00,
2013-01-18 15:37:00,-23.0,-34.3,30.01,WSW,241,0.0,0.0,54,0.00,,,0.00,Weather View 32 v70,2013-01-19 00:37:00,
2013-01-18 15:42:00,-23.1,-34.4,30.01,WSW,241,0.0,0.0,54,0.00,,,0.00,Weather View 32 v70,2013-01-19 00:42:00,
2013-01-18 15:47:00,-23.1,-34.4,30.01,WSW,241,0.0,0.0,54,0.00,,,0.00,Weather View 32 v70,2013-01-19 00:47:00,
2013-01-18 15:52:00,-23.0,-34.3,30.01,WSW,241,0.0,0.0,54,0.00,,,0.00,Weather View 32 v70,2013-01-19 00:52:00,
2013-01-18 15:57:00,-22.8,-33.8,30.01,WSW,241,0.0,0.0,55,0.00,,,0.00,Weather View 32 v70,2013-01-19 00:57:00,
2013-01-18 16:02:00,-22.2,-32.9,30.01,WSW,241,0.0,0.0,56,0.00,,,0.00,Weather View 32 v70,2013-01-19 01:02:00,
2013-01-18 16:07:00,-22.1,-33.1,30.01,WSW,241,0.0,0.0,55,0.00,,,0.00,Weather View 32 v70,2013-01-19 01:07:00,
2013-01-18 16:12:00,-22.3,-33.3,30.01,WSW,241,0.0,0.0,55,0.00,,,0.00,Weather View 32 v70,2013-01-19 01:12:00,
2013-01-18 16:17:00,-22.5,-33.8,30.01,WSW,241,0.0,0.0,54,0.00,,,0.00,Weather View 32 v70,2013-01-19 01:17:00,
2013-01-18 16:22:00,-22.8,-34.1,30.01,WSW,241,0.0,0.0,54,0.00,,,0.00,Weather View 32 v70,2013-01-19 01:22:00,
2013-01-18 16:27:00,-22.6,-33.9,30.02,WSW,241,0.0,0.0,54,0.00,,,0.00,Weather View 32 v70,2013-01-19 01:27:00,
2013-01-18 16:32:00,-22.9,-34.2,30.02,WSW,241,0.0,0.0,54,0.00,,,0.00,Weather View 32 v70,2013-01-19 01:32:00,
2013-01-18 16:37:00,-23.3,-34.9,30.02,WSW,241,0.0,0.0,53,0.00,,,0.00,Weather View 32 v70,2013-01-19 01:37:00,
2013-01-18 16:42:00,-23.3,-34.6,30.02,WSW,241,0.0,0.0,54,0.00,,,0.00,Weather View 32 v70,2013-01-19 01:42:00,
2013-01-18 16:47:00,-23.6,-35.2,30.02,WSW,241,0.0,0.0,53,0.00,,,0.00,Weather View 32 v70,2013-01-19 01:47:00,
2013-01-18 16:52:00,-24.2,-36.1,30.03,WSW,241,0.0,0.0,52,0.00,,,0.00,Weather View 32 v70,2013-01-19 01:52:00,
2013-01-18 16:57:00,-24.5,-36.4,30.03,WSW,241,0.0,0.0,52,0.00,,,0.00,Weather View 32 v70,2013-01-19 01:57:00,
2013-01-18 17:02:00,-24.8,-36.6,30.03,WSW,241,0.0,0.0,52,0.00,,,0.00,Weather View 32 v70,2013-01-19 02:02:00,
2013-01-18 17:07:00,-24.9,-36.7,30.03,WSW,241,0.0,0.0,52,0.00,,,0.00,Weather View 32 v70,2013-01-19 02:07:00,
2013-01-18 17:12:00,-25.1,-36.9,30.03,WSW,241,0.0,0.0,52,0.00,,,0.00,Weather View 32 v70,2013-01-19 02:12:00,
2013-01-18 17:17:00,-25.3,-37.1,30.03,WSW,241,0.0,0.0,52,0.00,,,0.00,Weather View 32 v70,2013-01-19 02:17:00,
2013-01-18 17:22:00,-25.4,-37.2,30.03,WSW,241,0.0,0.0,52,0.00,,,0.00,Weather View 32 v70,2013-01-19 02:22:00,
2013-01-18 17:27:00,-25.6,-37.4,30.03,WSW,241,0.0,0.0,52,0.00,,,0.00,Weather View 32 v70,2013-01-19 02:27:00,
2013-01-18 17:30:00,-25.4,-37.2,30.03,WSW,241,0.0,0.0,52,0.00,,,0.00,Weather View 32 v70,2013-01-19 02:30:00,
2013-01-18 17:32:00,-25.9,-37.7,30.03,WSW,241,0.0,0.0,52,0.00,,,0.00,Weather View 32 v70,2013-01-19 02:32:00,
2013-01-18 17:37:00,-26.0,-37.8,30.03,WSW,241,0.0,0.0,52,0.00,,,0.00,Weather View 32 v70,2013-01-19 02:37:00,
2013-01-18 17:42:00,-26.2,-37.9,30.03,WSW,241,0.0,0.0,52,0.00,,,0.00,Weather View 32 v70,2013-01-19 02:42:00,
2013-01-18 17:47:00,-26.4,-38.5,30.03,WSW,241,0.0,0.0,51,0.00,,,0.00,Weather View 32 v70,2013-01-19 02:47:00,
2013-01-18 17:52:00,-26.7,-38.4,30.03,WSW,241,0.0,0.0,52,0.00,,,0.00,Weather View 32 v70,2013-01-19 02:52:00,
2013-01-18 17:57:00,-26.7,-38.8,30.03,WSW,241,0.0,0.0,51,0.00,,,0.00,Weather View 32 v70,2013-01-19 02:57:00,
2013-01-18 18:02:00,-26.9,-38.9,30.03,WSW,241,0.0,0.0,51,0.00,,,0.00,Weather View 32 v70,2013-01-19 03:02:00,
2013-01-18 18:07:00,-27.0,-39.0,30.03,WSW,241,0.0,0.0,51,0.00,,,0.00,Weather View 32 v70,2013-01-19 03:07:00,
2013-01-18 18:12:00,-27.1,-39.1,30.03,WSW,241,0.0,0.0,51,0.00,,,0.00,Weather View 32 v70,2013-01-19 03:12:00,
2013-01-18 18:17:00,-27.2,-39.2,30.03,WSW,241,0.0,0.0,51,0.00,,,0.00,Weather View 32 v70,2013-01-19 03:17:00,
2013-01-18 18:22:00,-27.4,-39.4,30.03,WSW,241,0.0,0.0,51,0.00,,,0.00,Weather View 32 v70,2013-01-19 03:22:00,
2013-01-18 18:27:00,-27.4,-39.4,30.04,WSW,241,0.0,0.0,51,0.00,,,0.00,Weather View 32 v70,2013-01-19 03:27:00,
2013-01-18 18:30:00,-27.4,-39.4,30.03,WSW,241,0.0,0.0,51,0.00,,,0.00,Weather View 32 v70,2013-01-19 03:30:00,
2013-01-18 18:32:00,-27.6,-39.6,30.04,WSW,241,0.0,0.0,51,0.00,,,0.00,Weather View 32 v70,2013-01-19 03:32:00,
2013-01-18 18:37:00,-27.6,-39.6,30.04,WSW,241,0.0,0.0,51,0.00,,,0.00,Weather View 32 v70,2013-01-19 03:37:00,
2013-01-18 18:42:00,-27.7,-39.7,30.04,WSW,241,0.0,0.0,51,0.00,,,0.00,Weather View 32 v70,2013-01-19 03:42:00,
2013-01-18 18:47:00,-27.8,-39.8,30.04,WSW,241,0.0,0.0,51,0.00,,,0.00,Weather View 32 v70,2013-01-19 03:47:00,
2013-01-18 18:52:00,-27.8,-39.8,30.04,WSW,241,0.0,0.0,51,0.00,,,0.00,Weather View 32 v70,2013-01-19 03:52:00,
2013-01-18 18:57:00,-27.8,-40.1,30.04,WSW,241,0.0,0.0,50,0.00,,,0.00,Weather View 32 v70,2013-01-19 03:57:00,
2013-01-18 19:02:00,-28.0,-40.3,30.05,WSW,241,0.0,0.0,50,0.00,,,0.00,Weather View 32 v70,2013-01-19 04:02:00,
2013-01-18 19:07:00,-28.1,-40.4,30.05,WSW,241,0.0,0.0,50,0.00,,,0.00,Weather View 32 v70,2013-01-19 04:07:00,
2013-01-18 19:12:00,-28.0,-40.0,30.04,WSW,241,0.0,0.0,51,0.00,,,0.00,Weather View 32 v70,2013-01-19 04:12:00,
2013-01-18 19:17:00,-28.2,-40.5,30.04,WSW,241,0.0,0.0,50,0.00,,,0.00,Weather View 32 v70,2013-01-19 04:17:00,
2013-01-18 19:22:00,-28.4,-40.7,30.04,WSW,241,0.0,0.0,50,0.00,,,0.00,Weather View 32 v70,2013-01-19 04:22:00,
2013-01-18 19:27:00,-28.5,-40.8,30.04,WSW,241,0.0,0.0,50,0.00,,,0.00,Weather View 32 v70,2013-01-19 04:27:00,
2013-01-18 19:30:00,-28.4,-40.7,30.04,WSW,241,0.0,0.0,50,0.00,,,0.00,Weather View 32 v70,2013-01-19 04:30:00,
2013-01-18 19:32:00,-28.4,-40.7,30.04,WSW,241,0.0,0.0,50,0.00,,,0.00,Weather View 32 v70,2013-01-19 04:32:00,
2013-01-18 19:37:00,-28.2,-40.2,30.05,WSW,241,0.0,0.0,51,0.00,,,0.00,Weather View 32 v70,2013-01-19 04:37:00,
2013-01-18 19:42:00,-28.1,-40.1,30.05,WSW,241,0.0,0.0,51,0.00,,,0.00,Weather View 32 v70,2013-01-19 04:42:00,
2013-01-18 19:47:00,-28.0,-40.0,30.04,WSW,241,0.0,0.0,51,0.00,,,0.00,Weather View 32 v70,2013-01-19 04:47:00,
2013-01-18 19:52:00,-27.8,-39.8,30.05,WSW,241,0.0,0.0,51,0.00,,,0.00,Weather View 32 v70,2013-01-19 04:52:00,
2013-01-18 19:57:00,-27.2,-38.9,30.05,WSW,241,0.0,0.0,52,0.00,,,0.00,Weather View 32 v70,2013-01-19 04:57:00,
2013-01-18 20:00:00,-27.1,-38.8,30.05,WSW,241,0.0,0.0,52,0.00,,,0.00,Weather View 32 v70,2013-01-19 05:00:00,
2013-01-18 20:04:00,-26.9,-38.6,30.05,WSW,241,0.0,0.0,52,0.00,,,0.00,Weather View 32 v70,2013-01-19 05:04:00,
2013-01-18 20:09:00,-26.4,-37.8,30.05,WSW,241,0.0,0.0,53,0.00,,,0.00,Weather View 32 v70,2013-01-19 05:09:00,
2013-01-18 20:14:00,-26.0,-37.4,30.05,WSW,241,0.0,0.0,53,0.00,,,0.00,Weather View 32 v70,2013-01-19 05:14:00,
2013-01-18 20:19:00,-25.1,-36.3,30.05,WSW,241,0.0,0.0,54,0.00,,,0.00,Weather View 32 v70,2013-01-19 05:19:00,
2013-01-18 20:24:00,-25.0,-36.5,30.05,WSW,241,0.0,0.0,53,0.00,,,0.00,Weather View 32 v70,2013-01-19 05:24:00,
2013-01-18 20:29:00,-25.1,-36.6,30.04,WSW,241,0.0,0.0,53,0.00,,,0.00,Weather View 32 v70,2013-01-19 05:29:00,
2013-01-18 20:34:00,-25.4,-37.2,30.04,WSW,241,0.0,0.0,52,0.00,,,0.00,Weather View 32 v70,2013-01-19 05:34:00,
2013-01-18 20:40:00,-25.6,-37.4,30.04,WSW,241,0.0,0.0,52,0.00,,,0.00,Weather View 32 v70,2013-01-19 05:40:00,
2013-01-18 20:45:00,-25.8,-37.2,30.04,WSW,241,0.0,0.0,53,0.00,,,0.00,Weather View 32 v70,2013-01-19 05:45:00,
2013-01-18 20:50:00,-26.0,-37.8,30.04,WSW,241,0.0,0.0,52,0.00,,,0.00,Weather View 32 v70,2013-01-19 05:50:00,
2013-01-18 20:55:00,-26.1,-37.9,30.04,WSW,241,0.0,0.0,52,0.00,,,0.00,Weather View 32 v70,2013-01-19 05:55:00,
2013-01-18 21:04:00,-26.1,-37.9,30.04,WSW,241,0.0,0.0,52,0.00,,,0.00,Weather View 32 v70,2013-01-19 06:04:00,
2013-01-18 21:09:00,-26.3,-38.0,30.04,WSW,241,0.0,0.0,52,0.00,,,0.00,Weather View 32 v70,2013-01-19 06:09:00,
2013-01-18 21:14:00,-26.4,-38.1,30.04,WSW,241,0.0,0.0,52,0.00,,,0.00,Weather View 32 v70,2013-01-19 06:14:00,
2013-01-18 21:19:00,-26.4,-38.1,30.04,WSW,241,0.0,0.0,52,0.00,,,0.00,Weather View 32 v70,2013-01-19 06:19:00,
2013-01-18 21:24:00,-26.3,-38.0,30.04,WSW,241,0.0,0.0,52,0.00,,,0.00,Weather View 32 v70,2013-01-19 06:24:00,
2013-01-18 21:29:00,-26.2,-37.9,30.04,WSW,241,0.0,0.0,52,0.00,,,0.00,Weather View 32 v70,2013-01-19 06:29:00,
2013-01-18 21:30:00,-26.3,-38.0,30.04,WSW,241,0.0,0.0,52,0.00,,,0.00,Weather View 32 v70,2013-01-19 06:30:00,
2013-01-18 21:34:00,-25.7,-37.1,30.04,WSW,241,0.0,0.0,53,0.00,,,0.00,Weather View 32 v70,2013-01-19 06:34:00,
2013-01-18 21:39:00,-25.2,-36.3,30.04,WSW,241,0.0,0.0,54,0.00,,,0.00,Weather View 32 v70,2013-01-19 06:39:00,
2013-01-18 21:44:00,-24.7,-35.9,30.04,WSW,241,0.0,0.0,54,0.00,,,0.00,Weather View 32 v70,2013-01-19 06:44:00,
2013-01-18 21:49:00,-24.6,-35.8,30.04,WSW,241,0.0,0.0,54,0.00,,,0.00,Weather View 32 v70,2013-01-19 06:49:00,
2013-01-18 21:54:00,-24.6,-36.1,30.04,WSW,241,0.0,0.0,53,0.00,,,0.00,Weather View 32 v70,2013-01-19 06:54:00,
2013-01-18 21:59:00,-24.5,-36.0,30.04,WSW,241,0.0,0.0,53,0.00,,,0.00,Weather View 32 v70,2013-01-19 06:59:00,
2013-01-18 22:04:00,-24.3,-35.5,30.04,WSW,241,0.0,0.0,54,0.00,,,0.00,Weather View 32 v70,2013-01-19 07:04:00,
2013-01-18 22:09:00,-23.7,-34.6,30.05,WSW,241,0.0,0.0,55,0.00,,,0.00,Weather View 32 v70,2013-01-19 07:09:00,
2013-01-18 22:14:00,-22.8,-33.4,30.05,WSW,241,0.0,0.0,56,0.00,,,0.00,Weather View 32 v70,2013-01-19 07:14:00,
2013-01-18 22:19:00,-20.8,-30.9,30.05,WSW,241,0.0,0.0,58,0.00,,,0.00,Weather View 32 v70,2013-01-19 07:19:00,
2013-01-18 22:24:00,-17.5,-26.6,30.05,WSW,241,0.0,0.0,62,0.00,,,0.00,Weather View 32 v70,2013-01-19 07:24:00,
2013-01-18 22:29:00,-15.0,-24.2,30.05,WSW,241,0.0,0.0,62,0.00,,,0.00,Weather View 32 v70,2013-01-19 07:29:00,
2013-01-18 22:30:00,-19.2,-28.5,30.05,WSW,241,0.0,0.0,61,0.00,,,0.00,Weather View 32 v70,2013-01-19 07:30:00,
2013-01-18 22:34:00,-14.2,-23.4,30.05,WSW,241,0.0,0.0,62,0.00,,,0.00,Weather View 32 v70,2013-01-19 07:34:00,
2013-01-18 22:39:00,-14.2,-24.0,30.05,WSW,241,0.0,0.0,60,0.00,,,0.00,Weather View 32 v70,2013-01-19 07:39:00,
2013-01-18 22:44:00,-16.5,-27.5,30.05,WSW,241,0.0,0.0,56,0.00,,,0.00,Weather View 32 v70,2013-01-19 07:44:00,
2013-01-18 22:49:00,-17.5,-28.4,30.05,WSW,241,0.0,0.0,56,0.00,,,0.00,Weather View 32 v70,2013-01-19 07:49:00,
2013-01-18 22:54:00,-18.7,-29.9,30.05,WSW,241,0.0,0.0,55,0.00,,,0.00,Weather View 32 v70,2013-01-19 07:54:00,
2013-01-18 22:59:00,-19.9,-31.4,30.05,WSW,241,0.0,0.0,54,0.00,,,0.00,Weather View 32 v70,2013-01-19 07:59:00,
2013-01-18 23:05:00,-20.6,-31.7,30.05,WSW,241,0.0,0.0,55,0.00,,,0.00,Weather View 32 v70,2013-01-19 08:05:00,
2013-01-18 23:10:00,-20.9,-32.0,30.05,WSW,241,0.0,0.0,55,0.00,,,0.00,Weather View 32 v70,2013-01-19 08:10:00,
2013-01-18 23:15:00,-21.3,-32.7,30.05,WSW,241,0.0,0.0,54,0.00,,,0.00,Weather View 32 v70,2013-01-19 08:15:00,
2013-01-18 23:20:00,-21.6,-33.0,30.05,WSW,241,0.0,0.0,54,0.00,,,0.00,Weather View 32 v70,2013-01-19 08:20:00,
2013-01-18 23:25:00,-21.9,-33.2,30.05,WSW,241,0.0,0.0,54,0.00,,,0.00,Weather View 32 v70,2013-01-19 08:25:00,
2013-01-18 23:30:00,-21.9,-33.2,30.05,WSW,241,0.0,0.0,54,0.00,,,0.00,Weather View 32 v70,2013-01-19 08:30:00,
2013-01-18 23:35:00,-22.0,-33.3,30.05,WSW,241,0.0,0.0,54,0.00,,,0.00,Weather View 32 v70,2013-01-19 08:35:00,
2013-01-18 23:40:00,-21.9,-32.9,30.05,WSW,241,0.0,0.0,55,0.00,,,0.00,Weather View 32 v70,2013-01-19 08:40:00,
2013-01-18 23:45:00,-21.6,-32.6,30.05,WSW,241,0.0,0.0,55,0.00,,,0.00,Weather View 32 v70,2013-01-19 08:45:00,
2013-01-18 23:50:00,-21.0,-31.7,30.05,WSW,241,0.0,0.0,56,0.00,,,0.00,Weather View 32 v70,2013-01-19 08:50:00,
2013-01-18 23:55:00,-20.6,-31.4,30.05,WSW,241,0.0,0.0,56,0.00,,,0.00,Weather View 32 v70,2013-01-19 08:55:00,